sensor_id;sensor_type;location;lat;lon;timestamp;P1;durP1;ratioP1;P2;durP2;ratioP2
11052;SDS011;55230;42.602;23.470;2024-03-23T00:53:25;4.97;;;2.95;;
11052;SDS011;55230;42.602;23.470;2024-03-23T00:55:51;5.78;;;3.00;;
11052;SDS011;55230;42.602;23.470;2024-03-23T00:58:16;4.80;;;2.42;;
11052;SDS011;55230;42.602;23.470;2024-03-23T01:00:42;2.78;;;1.85;;
11052;SDS011;55230;42.602;23.470;2024-03-23T01:03:07;10.07;;;3.17;;
11052;SDS011;55230;42.602;23.470;2024-03-23T01:05:32;6.38;;;3.75;;
11052;SDS011;55230;42.602;23.470;2024-03-23T01:07:58;5.30;;;3.38;;
11052;SDS011;55230;42.602;23.470;2024-03-23T01:10:23;4.00;;;2.55;;
11052;SDS011;55230;42.602;23.470;2024-03-23T01:12:48;3.03;;;2.00;;
11052;SDS011;55230;42.602;23.470;2024-03-23T01:15:14;3.35;;;2.25;;
11052;SDS011;55230;42.602;23.470;2024-03-23T01:17:39;4.32;;;2.58;;
11052;SDS011;55230;42.602;23.470;2024-03-23T01:30:40;10.10;;;5.03;;
11052;SDS011;55230;42.602;23.470;2024-03-23T01:50:08;9.60;;;5.05;;
11052;SDS011;55230;42.602;23.470;2024-03-23T01:52:35;13.13;;;6.25;;
11052;SDS011;55230;42.602;23.470;2024-03-23T01:55:01;12.35;;;5.32;;
11052;SDS011;55230;42.602;23.470;2024-03-23T01:57:26;6.72;;;4.32;;
11052;SDS011;55230;42.602;23.470;2024-03-23T01:59:52;6.40;;;3.97;;
11052;SDS011;55230;42.602;23.470;2024-03-23T02:02:18;6.97;;;5.00;;
11052;SDS011;55230;42.602;23.470;2024-03-23T02:04:44;9.35;;;4.95;;
11052;SDS011;55230;42.602;23.470;2024-03-23T02:07:10;11.05;;;5.40;;
11052;SDS011;55230;42.602;23.470;2024-03-23T02:09:35;8.57;;;4.22;;
11052;SDS011;55230;42.602;23.470;2024-03-23T02:12:04;5.82;;;3.67;;
11052;SDS011;55230;42.602;23.470;2024-03-23T02:14:30;6.65;;;3.70;;
11052;SDS011;55230;42.602;23.470;2024-03-23T02:16:55;6.90;;;4.63;;
11052;SDS011;55230;42.602;23.470;2024-03-23T02:19:21;4.80;;;3.78;;
11052;SDS011;55230;42.602;23.470;2024-03-23T02:21:46;5.28;;;3.70;;
11052;SDS011;55230;42.602;23.470;2024-03-23T02:24:12;6.05;;;4.78;;
11052;SDS011;55230;42.602;23.470;2024-03-23T02:26:37;9.63;;;6.15;;
11052;SDS011;55230;42.602;23.470;2024-03-23T02:29:03;8.00;;;5.25;;
11052;SDS011;55230;42.602;23.470;2024-03-23T02:31:28;10.73;;;5.38;;
11052;SDS011;55230;42.602;23.470;2024-03-23T02:33:54;9.60;;;6.00;;
11052;SDS011;55230;42.602;23.470;2024-03-23T02:36:19;6.32;;;4.80;;
11052;SDS011;55230;42.602;23.470;2024-03-23T02:38:46;9.95;;;5.45;;
11052;SDS011;55230;42.602;23.470;2024-03-23T02:41:11;6.95;;;4.22;;
11052;SDS011;55230;42.602;23.470;2024-03-23T02:43:37;8.63;;;4.75;;
11052;SDS011;55230;42.602;23.470;2024-03-23T02:46:02;4.55;;;3.38;;
11052;SDS011;55230;42.602;23.470;2024-03-23T02:48:29;4.20;;;2.50;;
11052;SDS011;55230;42.602;23.470;2024-03-23T02:50:54;4.70;;;3.25;;
11052;SDS011;55230;42.602;23.470;2024-03-23T02:53:20;6.88;;;3.33;;
11052;SDS011;55230;42.602;23.470;2024-03-23T02:55:45;4.82;;;3.28;;
11052;SDS011;55230;42.602;23.470;2024-03-23T02:58:11;4.05;;;2.60;;
11052;SDS011;55230;42.602;23.470;2024-03-23T03:00:36;3.40;;;2.50;;
11052;SDS011;55230;42.602;23.470;2024-03-23T03:03:02;4.85;;;3.08;;
11052;SDS011;55230;42.602;23.470;2024-03-23T03:05:28;3.90;;;2.72;;
11052;SDS011;55230;42.602;23.470;2024-03-23T03:07:53;4.68;;;2.92;;
11052;SDS011;55230;42.602;23.470;2024-03-23T03:10:19;3.05;;;2.75;;
11052;SDS011;55230;42.602;23.470;2024-03-23T03:12:44;3.67;;;2.88;;
11052;SDS011;55230;42.602;23.470;2024-03-23T03:15:10;5.75;;;3.97;;
11052;SDS011;55230;42.602;23.470;2024-03-23T03:17:35;18.90;;;10.82;;
11052;SDS011;55230;42.602;23.470;2024-03-23T03:20:00;23.05;;;12.35;;
11052;SDS011;55230;42.602;23.470;2024-03-23T03:22:26;7.63;;;6.05;;
11052;SDS011;55230;42.602;23.470;2024-03-23T03:24:51;6.72;;;3.90;;
11052;SDS011;55230;42.602;23.470;2024-03-23T03:27:16;4.32;;;2.78;;
11052;SDS011;55230;42.602;23.470;2024-03-23T03:29:42;3.30;;;2.85;;
11052;SDS011;55230;42.602;23.470;2024-03-23T03:32:07;3.80;;;3.22;;
11052;SDS011;55230;42.602;23.470;2024-03-23T03:34:33;3.55;;;2.72;;
11052;SDS011;55230;42.602;23.470;2024-03-23T03:36:58;3.10;;;2.72;;
11052;SDS011;55230;42.602;23.470;2024-03-23T03:39:24;4.32;;;3.15;;
11052;SDS011;55230;42.602;23.470;2024-03-23T03:41:50;4.55;;;2.78;;
11052;SDS011;55230;42.602;23.470;2024-03-23T03:44:16;5.07;;;2.83;;
11052;SDS011;55230;42.602;23.470;2024-03-23T03:46:41;7.13;;;3.85;;
11052;SDS011;55230;42.602;23.470;2024-03-23T03:49:07;8.55;;;4.10;;
11052;SDS011;55230;42.602;23.470;2024-03-23T03:51:32;7.43;;;5.05;;
11052;SDS011;55230;42.602;23.470;2024-03-23T03:53:58;3.88;;;2.95;;
11052;SDS011;55230;42.602;23.470;2024-03-23T03:56:23;3.45;;;2.75;;
11052;SDS011;55230;42.602;23.470;2024-03-23T03:58:49;4.10;;;2.88;;
11052;SDS011;55230;42.602;23.470;2024-03-23T04:01:14;3.30;;;2.38;;
11052;SDS011;55230;42.602;23.470;2024-03-23T04:03:40;4.13;;;2.83;;
11052;SDS011;55230;42.602;23.470;2024-03-23T04:06:08;12.15;;;5.15;;
11052;SDS011;55230;42.602;23.470;2024-03-23T04:08:34;7.15;;;4.35;;
11052;SDS011;55230;42.602;23.470;2024-03-23T04:10:59;9.00;;;5.00;;
11052;SDS011;55230;42.602;23.470;2024-03-23T04:13:25;8.52;;;4.70;;
11052;SDS011;55230;42.602;23.470;2024-03-23T04:15:53;23.02;;;9.02;;
11052;SDS011;55230;42.602;23.470;2024-03-23T04:18:20;27.45;;;10.60;;
11052;SDS011;55230;42.602;23.470;2024-03-23T04:20:46;21.30;;;9.70;;
11052;SDS011;55230;42.602;23.470;2024-03-23T04:23:12;8.57;;;5.32;;
11052;SDS011;55230;42.602;23.470;2024-03-23T04:25:37;4.55;;;2.72;;
11052;SDS011;55230;42.602;23.470;2024-03-23T04:28:02;4.60;;;2.97;;
11052;SDS011;55230;42.602;23.470;2024-03-23T04:30:28;5.45;;;3.03;;
11052;SDS011;55230;42.602;23.470;2024-03-23T04:32:54;5.35;;;3.45;;
11052;SDS011;55230;42.602;23.470;2024-03-23T04:35:19;6.35;;;3.47;;
11052;SDS011;55230;42.602;23.470;2024-03-23T04:37:47;4.95;;;3.03;;
11052;SDS011;55230;42.602;23.470;2024-03-23T04:40:12;6.97;;;3.95;;
11052;SDS011;55230;42.602;23.470;2024-03-23T04:42:38;6.50;;;4.28;;
11052;SDS011;55230;42.602;23.470;2024-03-23T04:45:04;8.80;;;3.78;;
11052;SDS011;55230;42.602;23.470;2024-03-23T04:47:31;7.03;;;4.22;;
11052;SDS011;55230;42.602;23.470;2024-03-23T04:49:56;11.48;;;5.18;;
11052;SDS011;55230;42.602;23.470;2024-03-23T04:52:22;10.95;;;5.63;;
11052;SDS011;55230;42.602;23.470;2024-03-23T04:54:47;8.85;;;5.53;;
11052;SDS011;55230;42.602;23.470;2024-03-23T04:57:12;10.68;;;5.50;;
11052;SDS011;55230;42.602;23.470;2024-03-23T04:59:38;16.25;;;11.15;;
11052;SDS011;55230;42.602;23.470;2024-03-23T05:02:03;10.98;;;6.30;;
11052;SDS011;55230;42.602;23.470;2024-03-23T05:04:29;8.98;;;5.68;;
11052;SDS011;55230;42.602;23.470;2024-03-23T05:06:54;12.00;;;6.45;;
11052;SDS011;55230;42.602;23.470;2024-03-23T05:09:20;9.73;;;6.40;;
11052;SDS011;55230;42.602;23.470;2024-03-23T05:11:46;11.57;;;7.55;;
11052;SDS011;55230;42.602;23.470;2024-03-23T05:14:12;18.35;;;9.50;;
11052;SDS011;55230;42.602;23.470;2024-03-23T05:16:38;14.23;;;7.40;;
11052;SDS011;55230;42.602;23.470;2024-03-23T05:19:04;13.85;;;9.25;;
11052;SDS011;55230;42.602;23.470;2024-03-23T05:21:29;11.13;;;7.72;;
11052;SDS011;55230;42.602;23.470;2024-03-23T05:23:55;13.02;;;8.25;;
11052;SDS011;55230;42.602;23.470;2024-03-23T05:26:21;27.15;;;15.18;;
11052;SDS011;55230;42.602;23.470;2024-03-23T05:28:47;26.92;;;14.40;;
11052;SDS011;55230;42.602;23.470;2024-03-23T05:31:18;25.50;;;13.27;;
11052;SDS011;55230;42.602;23.470;2024-03-23T05:33:48;26.38;;;12.82;;
11052;SDS011;55230;42.602;23.470;2024-03-23T05:36:13;21.85;;;12.75;;
11052;SDS011;55230;42.602;23.470;2024-03-23T05:38:38;19.50;;;12.32;;
11052;SDS011;55230;42.602;23.470;2024-03-23T05:41:04;17.80;;;10.27;;
11052;SDS011;55230;42.602;23.470;2024-03-23T05:43:30;21.13;;;11.05;;
11052;SDS011;55230;42.602;23.470;2024-03-23T05:45:56;12.30;;;8.27;;
11052;SDS011;55230;42.602;23.470;2024-03-23T05:48:22;18.20;;;10.45;;
11052;SDS011;55230;42.602;23.470;2024-03-23T05:50:48;17.20;;;8.88;;
11052;SDS011;55230;42.602;23.470;2024-03-23T05:53:14;17.60;;;9.27;;
11052;SDS011;55230;42.602;23.470;2024-03-23T05:55:40;11.77;;;7.05;;
11052;SDS011;55230;42.602;23.470;2024-03-23T05:58:06;13.25;;;7.00;;
11052;SDS011;55230;42.602;23.470;2024-03-23T06:00:31;14.05;;;8.05;;
11052;SDS011;55230;42.602;23.470;2024-03-23T06:02:57;17.30;;;7.95;;
11052;SDS011;55230;42.602;23.470;2024-03-23T06:16:05;10.38;;;7.38;;
11052;SDS011;55230;42.602;23.470;2024-03-23T06:28:59;18.55;;;6.90;;
11052;SDS011;55230;42.602;23.470;2024-03-23T06:31:24;12.80;;;7.82;;
11052;SDS011;55230;42.602;23.470;2024-03-23T06:33:49;22.40;;;6.68;;
11052;SDS011;55230;42.602;23.470;2024-03-23T06:36:15;15.07;;;7.28;;
11052;SDS011;55230;42.602;23.470;2024-03-23T06:49:11;15.13;;;8.38;;
11052;SDS011;55230;42.602;23.470;2024-03-23T06:51:56;17.48;;;7.80;;
11052;SDS011;55230;42.602;23.470;2024-03-23T07:01:30;15.90;;;8.25;;
11052;SDS011;55230;42.602;23.470;2024-03-23T07:08:07;16.48;;;7.47;;
11052;SDS011;55230;42.602;23.470;2024-03-23T07:10:33;11.30;;;6.53;;
11052;SDS011;55230;42.602;23.470;2024-03-23T07:12:58;12.88;;;7.82;;
11052;SDS011;55230;42.602;23.470;2024-03-23T07:15:24;11.55;;;7.38;;
11052;SDS011;55230;42.602;23.470;2024-03-23T07:17:49;11.10;;;7.72;;
11052;SDS011;55230;42.602;23.470;2024-03-23T07:20:15;8.75;;;5.82;;
11052;SDS011;55230;42.602;23.470;2024-03-23T07:22:40;11.02;;;6.68;;
11052;SDS011;55230;42.602;23.470;2024-03-23T07:25:06;10.15;;;6.00;;
11052;SDS011;55230;42.602;23.470;2024-03-23T07:27:32;11.80;;;6.63;;
11052;SDS011;55230;42.602;23.470;2024-03-23T07:29:58;11.02;;;6.30;;
11052;SDS011;55230;42.602;23.470;2024-03-23T07:32:24;8.93;;;5.95;;
11052;SDS011;55230;42.602;23.470;2024-03-23T07:34:51;11.32;;;6.82;;
11052;SDS011;55230;42.602;23.470;2024-03-23T07:37:17;9.95;;;7.68;;
11052;SDS011;55230;42.602;23.470;2024-03-23T07:39:42;11.23;;;5.40;;
11052;SDS011;55230;42.602;23.470;2024-03-23T07:42:08;9.77;;;6.03;;
11052;SDS011;55230;42.602;23.470;2024-03-23T07:44:33;10.20;;;5.97;;
11052;SDS011;55230;42.602;23.470;2024-03-23T07:47:00;8.73;;;5.45;;
11052;SDS011;55230;42.602;23.470;2024-03-23T07:49:26;8.32;;;5.88;;
11052;SDS011;55230;42.602;23.470;2024-03-23T07:51:51;9.70;;;6.60;;
11052;SDS011;55230;42.602;23.470;2024-03-23T07:54:16;10.02;;;5.47;;
11052;SDS011;55230;42.602;23.470;2024-03-23T07:56:42;11.73;;;6.97;;
11052;SDS011;55230;42.602;23.470;2024-03-23T08:03:13;11.57;;;6.88;;
11052;SDS011;55230;42.602;23.470;2024-03-23T08:06:13;11.18;;;7.22;;
11052;SDS011;55230;42.602;23.470;2024-03-23T08:09:52;10.88;;;7.68;;
11052;SDS011;55230;42.602;23.470;2024-03-23T08:12:53;13.73;;;6.15;;
11052;SDS011;55230;42.602;23.470;2024-03-23T08:16:07;10.60;;;6.07;;
11052;SDS011;55230;42.602;23.470;2024-03-23T08:19:40;11.18;;;6.47;;
11052;SDS011;55230;42.602;23.470;2024-03-23T08:22:26;10.50;;;7.38;;
11052;SDS011;55230;42.602;23.470;2024-03-23T08:25:21;10.15;;;6.65;;
11052;SDS011;55230;42.602;23.470;2024-03-23T08:27:47;9.70;;;6.47;;
11052;SDS011;55230;42.602;23.470;2024-03-23T08:30:12;9.23;;;5.80;;
11052;SDS011;55230;42.602;23.470;2024-03-23T08:32:38;8.73;;;6.80;;
11052;SDS011;55230;42.602;23.470;2024-03-23T08:35:03;11.02;;;6.07;;
11052;SDS011;55230;42.602;23.470;2024-03-23T08:37:29;13.20;;;6.15;;
11052;SDS011;55230;42.602;23.470;2024-03-23T08:39:54;9.05;;;6.22;;
11052;SDS011;55230;42.602;23.470;2024-03-23T08:42:20;8.48;;;6.07;;
11052;SDS011;55230;42.602;23.470;2024-03-23T08:44:46;11.63;;;6.43;;
11052;SDS011;55230;42.602;23.470;2024-03-23T08:47:14;8.63;;;6.30;;
11052;SDS011;55230;42.602;23.470;2024-03-23T08:49:40;8.35;;;6.22;;
11052;SDS011;55230;42.602;23.470;2024-03-23T08:52:06;8.77;;;6.13;;
11052;SDS011;55230;42.602;23.470;2024-03-23T08:54:31;7.22;;;5.68;;
11052;SDS011;55230;42.602;23.470;2024-03-23T08:56:57;9.73;;;5.97;;
11052;SDS011;55230;42.602;23.470;2024-03-23T08:59:22;16.17;;;7.57;;
11052;SDS011;55230;42.602;23.470;2024-03-23T09:01:49;8.25;;;5.80;;
11052;SDS011;55230;42.602;23.470;2024-03-23T09:04:14;12.07;;;6.10;;
11052;SDS011;55230;42.602;23.470;2024-03-23T09:06:42;12.07;;;6.55;;
11052;SDS011;55230;42.602;23.470;2024-03-23T09:09:08;12.25;;;6.55;;
11052;SDS011;55230;42.602;23.470;2024-03-23T09:11:33;10.00;;;6.05;;
11052;SDS011;55230;42.602;23.470;2024-03-23T09:13:58;10.95;;;5.95;;
11052;SDS011;55230;42.602;23.470;2024-03-23T09:16:24;12.00;;;6.30;;
11052;SDS011;55230;42.602;23.470;2024-03-23T09:18:49;9.07;;;6.80;;
11052;SDS011;55230;42.602;23.470;2024-03-23T09:21:14;8.43;;;5.85;;
11052;SDS011;55230;42.602;23.470;2024-03-23T09:23:42;10.80;;;5.43;;
11052;SDS011;55230;42.602;23.470;2024-03-23T09:26:08;6.20;;;4.70;;
11052;SDS011;55230;42.602;23.470;2024-03-23T09:28:34;7.90;;;4.68;;
11052;SDS011;55230;42.602;23.470;2024-03-23T09:31:03;9.40;;;5.30;;
11052;SDS011;55230;42.602;23.470;2024-03-23T09:33:29;6.80;;;5.05;;
11052;SDS011;55230;42.602;23.470;2024-03-23T09:35:54;9.40;;;5.53;;
11052;SDS011;55230;42.602;23.470;2024-03-23T09:38:21;6.85;;;4.70;;
11052;SDS011;55230;42.602;23.470;2024-03-23T09:40:47;27.67;;;5.95;;
11052;SDS011;55230;42.602;23.470;2024-03-23T09:43:15;11.88;;;6.95;;
11052;SDS011;55230;42.602;23.470;2024-03-23T09:45:40;7.18;;;4.47;;
11052;SDS011;55230;42.602;23.470;2024-03-23T09:48:11;11.73;;;5.85;;
11052;SDS011;55230;42.602;23.470;2024-03-23T09:50:40;7.28;;;4.07;;
11052;SDS011;55230;42.602;23.470;2024-03-23T09:53:06;6.80;;;4.22;;
11052;SDS011;55230;42.602;23.470;2024-03-23T09:55:33;4.47;;;3.67;;
11052;SDS011;55230;42.602;23.470;2024-03-23T09:58:00;6.53;;;3.80;;
11052;SDS011;55230;42.602;23.470;2024-03-23T10:00:25;6.25;;;4.75;;
11052;SDS011;55230;42.602;23.470;2024-03-23T10:02:51;7.18;;;4.95;;
11052;SDS011;55230;42.602;23.470;2024-03-23T10:05:20;7.75;;;4.47;;
11052;SDS011;55230;42.602;23.470;2024-03-23T10:07:48;9.10;;;4.70;;
11052;SDS011;55230;42.602;23.470;2024-03-23T10:10:16;5.90;;;4.53;;
11052;SDS011;55230;42.602;23.470;2024-03-23T10:12:46;5.75;;;4.78;;
11052;SDS011;55230;42.602;23.470;2024-03-23T10:15:19;6.72;;;6.00;;
11052;SDS011;55230;42.602;23.470;2024-03-23T10:17:46;6.45;;;4.85;;
11052;SDS011;55230;42.602;23.470;2024-03-23T10:20:12;10.05;;;4.18;;
11052;SDS011;55230;42.602;23.470;2024-03-23T10:22:38;6.82;;;4.20;;
11052;SDS011;55230;42.602;23.470;2024-03-23T10:25:10;7.25;;;5.15;;
11052;SDS011;55230;42.602;23.470;2024-03-23T10:27:36;9.35;;;4.55;;
11052;SDS011;55230;42.602;23.470;2024-03-23T10:30:11;7.95;;;5.85;;
11052;SDS011;55230;42.602;23.470;2024-03-23T10:32:39;6.10;;;4.13;;
11052;SDS011;55230;42.602;23.470;2024-03-23T10:35:17;4.93;;;4.18;;
11052;SDS011;55230;42.602;23.470;2024-03-23T10:37:45;7.38;;;5.00;;
11052;SDS011;55230;42.602;23.470;2024-03-23T10:40:17;5.15;;;3.72;;
11052;SDS011;55230;42.602;23.470;2024-03-23T10:42:43;9.32;;;8.07;;
11052;SDS011;55230;42.602;23.470;2024-03-23T10:45:10;5.05;;;4.55;;
11052;SDS011;55230;42.602;23.470;2024-03-23T10:47:36;5.10;;;3.58;;
11052;SDS011;55230;42.602;23.470;2024-03-23T10:50:03;4.53;;;3.38;;
11052;SDS011;55230;42.602;23.470;2024-03-23T10:52:30;4.85;;;4.25;;
11052;SDS011;55230;42.602;23.470;2024-03-23T10:54:55;3.70;;;3.35;;
11052;SDS011;55230;42.602;23.470;2024-03-23T10:57:27;7.32;;;4.20;;
11052;SDS011;55230;42.602;23.470;2024-03-23T10:59:59;6.50;;;3.28;;
11052;SDS011;55230;42.602;23.470;2024-03-23T11:02:27;9.90;;;5.47;;
11052;SDS011;55230;42.602;23.470;2024-03-23T11:04:54;11.27;;;3.42;;
11052;SDS011;55230;42.602;23.470;2024-03-23T11:14:43;19.52;;;5.93;;
11052;SDS011;55230;42.602;23.470;2024-03-23T11:17:09;6.88;;;4.38;;
11052;SDS011;55230;42.602;23.470;2024-03-23T11:19:35;4.28;;;3.75;;
11052;SDS011;55230;42.602;23.470;2024-03-23T11:22:02;5.15;;;3.45;;
11052;SDS011;55230;42.602;23.470;2024-03-23T11:24:31;7.32;;;3.17;;
11052;SDS011;55230;42.602;23.470;2024-03-23T11:26:56;5.43;;;3.25;;
11052;SDS011;55230;42.602;23.470;2024-03-23T11:29:25;8.73;;;5.45;;
11052;SDS011;55230;42.602;23.470;2024-03-23T11:31:52;8.13;;;3.58;;
11052;SDS011;55230;42.602;23.470;2024-03-23T11:34:18;3.10;;;2.63;;
11052;SDS011;55230;42.602;23.470;2024-03-23T11:36:44;8.45;;;3.55;;
11052;SDS011;55230;42.602;23.470;2024-03-23T11:41:49;2.88;;;2.45;;
11052;SDS011;55230;42.602;23.470;2024-03-23T11:44:21;7.82;;;2.95;;
11052;SDS011;55230;42.602;23.470;2024-03-23T11:46:48;4.70;;;2.78;;
11052;SDS011;55230;42.602;23.470;2024-03-23T11:49:21;4.95;;;3.03;;
11052;SDS011;55230;42.602;23.470;2024-03-23T11:51:47;4.15;;;2.78;;
11052;SDS011;55230;42.602;23.470;2024-03-23T11:54:13;5.32;;;3.67;;
11052;SDS011;55230;42.602;23.470;2024-03-23T11:56:38;5.22;;;3.35;;
11052;SDS011;55230;42.602;23.470;2024-03-23T11:59:04;3.67;;;2.92;;
11052;SDS011;55230;42.602;23.470;2024-03-23T12:01:29;8.00;;;3.03;;
11052;SDS011;55230;42.602;23.470;2024-03-23T12:03:56;4.30;;;2.67;;
11052;SDS011;55230;42.602;23.470;2024-03-23T12:06:21;8.07;;;3.35;;
11052;SDS011;55230;42.602;23.470;2024-03-23T12:08:47;4.03;;;2.72;;
11052;SDS011;55230;42.602;23.470;2024-03-23T12:13:40;3.35;;;3.05;;
11052;SDS011;55230;42.602;23.470;2024-03-23T12:16:11;3.33;;;2.88;;
11052;SDS011;55230;42.602;23.470;2024-03-23T12:18:42;3.65;;;2.90;;
11052;SDS011;55230;42.602;23.470;2024-03-23T12:21:08;5.97;;;2.85;;
11052;SDS011;55230;42.602;23.470;2024-03-23T12:23:34;24.13;;;5.65;;
11052;SDS011;55230;42.602;23.470;2024-03-23T12:26:00;7.32;;;4.85;;
11052;SDS011;55230;42.602;23.470;2024-03-23T12:28:26;3.70;;;2.83;;
11052;SDS011;55230;42.602;23.470;2024-03-23T12:30:52;5.38;;;3.05;;
11052;SDS011;55230;42.602;23.470;2024-03-23T12:33:19;4.45;;;2.70;;
11052;SDS011;55230;42.602;23.470;2024-03-23T12:35:44;3.53;;;2.70;;
11052;SDS011;55230;42.602;23.470;2024-03-23T12:38:10;6.40;;;3.22;;
11052;SDS011;55230;42.602;23.470;2024-03-23T12:40:35;2.67;;;2.47;;
11052;SDS011;55230;42.602;23.470;2024-03-23T12:43:01;3.28;;;2.78;;
11052;SDS011;55230;42.602;23.470;2024-03-23T12:45:26;8.68;;;3.60;;
11052;SDS011;55230;42.602;23.470;2024-03-23T12:47:52;5.45;;;3.42;;
11052;SDS011;55230;42.602;23.470;2024-03-23T12:50:18;3.67;;;3.13;;
11052;SDS011;55230;42.602;23.470;2024-03-23T12:52:44;5.38;;;3.83;;
11052;SDS011;55230;42.602;23.470;2024-03-23T12:55:09;5.22;;;3.53;;
11052;SDS011;55230;42.602;23.470;2024-03-23T12:57:38;9.38;;;3.85;;
11052;SDS011;55230;42.602;23.470;2024-03-23T13:00:03;4.32;;;2.90;;
11052;SDS011;55230;42.602;23.470;2024-03-23T13:02:29;6.05;;;2.83;;
11052;SDS011;55230;42.602;23.470;2024-03-23T13:04:55;6.35;;;4.85;;
11052;SDS011;55230;42.602;23.470;2024-03-23T13:07:24;5.50;;;3.33;;
11052;SDS011;55230;42.602;23.470;2024-03-23T13:09:50;8.07;;;3.70;;
11052;SDS011;55230;42.602;23.470;2024-03-23T13:12:17;3.97;;;3.55;;
11052;SDS011;55230;42.602;23.470;2024-03-23T13:14:43;5.07;;;3.25;;
11052;SDS011;55230;42.602;23.470;2024-03-23T13:17:09;3.42;;;2.88;;
11052;SDS011;55230;42.602;23.470;2024-03-23T13:19:34;12.45;;;6.78;;
11052;SDS011;55230;42.602;23.470;2024-03-23T13:22:00;7.22;;;3.33;;
11052;SDS011;55230;42.602;23.470;2024-03-23T13:24:26;4.25;;;3.05;;
11052;SDS011;55230;42.602;23.470;2024-03-23T13:26:52;6.50;;;3.55;;
11052;SDS011;55230;42.602;23.470;2024-03-23T13:29:19;5.78;;;3.70;;
11052;SDS011;55230;42.602;23.470;2024-03-23T13:31:48;3.65;;;3.15;;
11052;SDS011;55230;42.602;23.470;2024-03-23T13:34:14;3.67;;;3.35;;
11052;SDS011;55230;42.602;23.470;2024-03-23T13:36:43;3.97;;;3.53;;
11052;SDS011;55230;42.602;23.470;2024-03-23T13:39:12;4.65;;;4.13;;
11052;SDS011;55230;42.602;23.470;2024-03-23T14:03:22;5.30;;;3.63;;
11052;SDS011;55230;42.602;23.470;2024-03-23T14:05:48;7.88;;;4.20;;
11052;SDS011;55230;42.602;23.470;2024-03-23T14:08:13;4.75;;;3.65;;
11052;SDS011;55230;42.602;23.470;2024-03-23T14:10:42;3.88;;;3.47;;
11052;SDS011;55230;42.602;23.470;2024-03-23T14:13:09;5.65;;;4.25;;
11052;SDS011;55230;42.602;23.470;2024-03-23T14:15:35;5.53;;;3.60;;
11052;SDS011;55230;42.602;23.470;2024-03-23T14:18:02;6.50;;;3.55;;
11052;SDS011;55230;42.602;23.470;2024-03-23T14:20:27;3.80;;;3.13;;
11052;SDS011;55230;42.602;23.470;2024-03-23T14:22:53;6.22;;;3.45;;
11052;SDS011;55230;42.602;23.470;2024-03-23T14:25:18;12.38;;;3.63;;
11052;SDS011;55230;42.602;23.470;2024-03-23T14:27:44;8.13;;;3.97;;
11052;SDS011;55230;42.602;23.470;2024-03-23T14:30:10;5.10;;;3.72;;
11052;SDS011;55230;42.602;23.470;2024-03-23T14:32:37;5.28;;;3.50;;
11052;SDS011;55230;42.602;23.470;2024-03-23T14:35:02;4.22;;;3.60;;
11052;SDS011;55230;42.602;23.470;2024-03-23T14:37:28;4.97;;;3.20;;
11052;SDS011;55230;42.602;23.470;2024-03-23T14:39:57;3.38;;;2.72;;
11052;SDS011;55230;42.602;23.470;2024-03-23T14:42:23;4.07;;;2.72;;
11052;SDS011;55230;42.602;23.470;2024-03-23T14:44:49;5.03;;;2.80;;
11052;SDS011;55230;42.602;23.470;2024-03-23T14:47:14;7.63;;;3.70;;
11052;SDS011;55230;42.602;23.470;2024-03-23T14:49:40;4.05;;;3.03;;
11052;SDS011;55230;42.602;23.470;2024-03-23T14:52:06;4.15;;;3.75;;
11052;SDS011;55230;42.602;23.470;2024-03-23T14:54:32;4.60;;;3.15;;
11052;SDS011;55230;42.602;23.470;2024-03-23T14:56:57;6.55;;;3.53;;
11052;SDS011;55230;42.602;23.470;2024-03-23T14:59:23;4.85;;;3.33;;
11052;SDS011;55230;42.602;23.470;2024-03-23T15:01:49;3.58;;;3.28;;
11052;SDS011;55230;42.602;23.470;2024-03-23T15:04:14;8.10;;;4.07;;
11052;SDS011;55230;42.602;23.470;2024-03-23T15:06:40;4.75;;;3.15;;
11052;SDS011;55230;42.602;23.470;2024-03-23T15:09:05;7.82;;;3.50;;
11052;SDS011;55230;42.602;23.470;2024-03-23T15:11:33;4.63;;;3.70;;
11052;SDS011;55230;42.602;23.470;2024-03-23T15:13:58;8.00;;;4.80;;
11052;SDS011;55230;42.602;23.470;2024-03-23T15:16:23;7.53;;;4.05;;
11052;SDS011;55230;42.602;23.470;2024-03-23T15:18:49;5.50;;;3.00;;
11052;SDS011;55230;42.602;23.470;2024-03-23T15:21:14;6.07;;;4.82;;
11052;SDS011;55230;42.602;23.470;2024-03-23T15:23:45;3.58;;;3.28;;
11052;SDS011;55230;42.602;23.470;2024-03-23T15:26:10;4.93;;;3.10;;
11052;SDS011;55230;42.602;23.470;2024-03-23T15:28:36;8.40;;;4.35;;
11052;SDS011;55230;42.602;23.470;2024-03-23T15:31:24;5.40;;;3.88;;
11052;SDS011;55230;42.602;23.470;2024-03-23T15:33:50;11.65;;;6.55;;
11052;SDS011;55230;42.602;23.470;2024-03-23T15:36:16;17.83;;;10.38;;
11052;SDS011;55230;42.602;23.470;2024-03-23T15:38:42;11.75;;;7.55;;
11052;SDS011;55230;42.602;23.470;2024-03-23T15:41:08;6.15;;;4.40;;
11052;SDS011;55230;42.602;23.470;2024-03-23T15:43:34;5.57;;;3.78;;
11052;SDS011;55230;42.602;23.470;2024-03-23T15:46:01;6.13;;;3.80;;
11052;SDS011;55230;42.602;23.470;2024-03-23T15:48:28;8.70;;;3.80;;
11052;SDS011;55230;42.602;23.470;2024-03-23T15:50:55;26.33;;;11.13;;
11052;SDS011;55230;42.602;23.470;2024-03-23T15:53:24;18.25;;;8.55;;
11052;SDS011;55230;42.602;23.470;2024-03-23T15:55:54;7.60;;;5.10;;
11052;SDS011;55230;42.602;23.470;2024-03-23T15:58:20;9.65;;;4.72;;
11052;SDS011;55230;42.602;23.470;2024-03-23T16:00:53;8.15;;;5.13;;
11052;SDS011;55230;42.602;23.470;2024-03-23T16:03:19;8.15;;;5.28;;
11052;SDS011;55230;42.602;23.470;2024-03-23T16:05:51;13.45;;;7.25;;
11052;SDS011;55230;42.602;23.470;2024-03-23T16:08:17;18.95;;;8.13;;
11052;SDS011;55230;42.602;23.470;2024-03-23T16:10:42;20.55;;;8.82;;
11052;SDS011;55230;42.602;23.470;2024-03-23T16:13:08;25.73;;;12.93;;
11052;SDS011;55230;42.602;23.470;2024-03-23T16:15:33;18.70;;;9.75;;
11052;SDS011;55230;42.602;23.470;2024-03-23T16:17:58;10.93;;;6.65;;
11052;SDS011;55230;42.602;23.470;2024-03-23T16:20:24;64.63;;;30.27;;
11052;SDS011;55230;42.602;23.470;2024-03-23T16:22:49;33.97;;;17.95;;
11052;SDS011;55230;42.602;23.470;2024-03-23T16:25:15;15.38;;;8.93;;
11052;SDS011;55230;42.602;23.470;2024-03-23T16:27:40;39.42;;;23.10;;
11052;SDS011;55230;42.602;23.470;2024-03-23T16:30:07;12.70;;;6.65;;
11052;SDS011;55230;42.602;23.470;2024-03-23T16:32:32;5.18;;;2.97;;
11052;SDS011;55230;42.602;23.470;2024-03-23T16:35:00;4.55;;;4.00;;
11052;SDS011;55230;42.602;23.470;2024-03-23T16:37:25;8.65;;;4.38;;
11052;SDS011;55230;42.602;23.470;2024-03-23T16:39:51;6.07;;;3.80;;
11052;SDS011;55230;42.602;23.470;2024-03-23T16:42:16;17.83;;;8.75;;
11052;SDS011;55230;42.602;23.470;2024-03-23T16:44:42;11.73;;;7.10;;
11052;SDS011;55230;42.602;23.470;2024-03-23T16:47:07;11.25;;;6.28;;
11052;SDS011;55230;42.602;23.470;2024-03-23T16:49:33;4.68;;;3.85;;
11052;SDS011;55230;42.602;23.470;2024-03-23T16:51:59;7.47;;;4.13;;
11052;SDS011;55230;42.602;23.470;2024-03-23T16:54:24;6.88;;;4.88;;
11052;SDS011;55230;42.602;23.470;2024-03-23T16:56:49;15.30;;;8.10;;
11052;SDS011;55230;42.602;23.470;2024-03-23T16:59:15;9.90;;;5.07;;
11052;SDS011;55230;42.602;23.470;2024-03-23T17:01:40;5.93;;;3.88;;
11052;SDS011;55230;42.602;23.470;2024-03-23T17:04:06;5.53;;;3.20;;
11052;SDS011;55230;42.602;23.470;2024-03-23T17:06:31;13.30;;;9.95;;
11052;SDS011;55230;42.602;23.470;2024-03-23T17:08:57;5.57;;;4.47;;
11052;SDS011;55230;42.602;23.470;2024-03-23T17:11:23;2.25;;;2.05;;